Time,TemperatureF,DewpointF,PressureIn,WindDirection,WindDirectionDegrees,WindSpeedMPH,WindSpeedGustMPH,Humidity,HourlyPrecipIn,Conditions,Clouds,dailyrainin,SoftwareType,DateUTC
2013-03-20 00:00:00,69.3,63.2,29.92,ESE,111,0.0,0.0,81,0.00,,SKC,0.00,VWS V14.01,2013-03-20 05:00:00,
2013-03-20 00:01:00,69.3,63.6,29.92,ESE,111,0.0,0.0,82,0.00,,SKC,0.00,VWS V14.01,2013-03-20 05:01:00,
2013-03-20 00:06:00,69.2,63.5,29.92,ESE,111,0.0,0.0,82,0.00,,SKC,0.00,VWS V14.01,2013-03-20 05:06:00,
2013-03-20 00:10:00,69.2,63.5,29.92,ESE,111,0.0,0.0,82,0.00,,SKC,0.00,VWS V14.01,2013-03-20 05:10:00,
2013-03-20 00:11:00,69.2,63.5,29.93,ESE,111,0.0,0.0,82,0.00,,SKC,0.00,VWS V14.01,2013-03-20 05:11:00,
2013-03-20 00:16:00,69.1,63.4,29.93,ESE,111,0.0,2.0,82,0.00,,SKC,0.00,VWS V14.01,2013-03-20 05:16:00,
2013-03-20 00:20:00,69.1,63.4,29.93,ESE,111,0.0,2.0,82,0.00,,SKC,0.00,VWS V14.01,2013-03-20 05:20:00,
2013-03-20 00:21:00,69.0,63.3,29.93,ESE,111,0.0,4.0,82,0.00,,SKC,0.00,VWS V14.01,2013-03-20 05:21:00,
2013-03-20 00:26:00,68.9,63.5,29.93,ESE,111,0.0,4.0,83,0.00,,SKC,0.00,VWS V14.01,2013-03-20 05:26:00,
2013-03-20 00:30:00,68.9,63.5,29.93,ESE,111,0.0,4.0,83,0.00,,SKC,0.00,VWS V14.01,2013-03-20 05:30:00,
2013-03-20 00:32:00,68.8,63.4,29.94,ESE,111,0.0,3.0,83,0.00,,SKC,0.00,VWS V14.01,2013-03-20 05:32:00,
2013-03-20 00:37:00,68.8,63.4,29.94,ESE,111,0.0,0.0,83,0.00,,SKC,0.00,VWS V14.01,2013-03-20 05:37:00,
2013-03-20 00:40:00,68.8,63.4,29.94,ESE,111,0.0,3.0,83,0.00,,SKC,0.00,VWS V14.01,2013-03-20 05:40:00,
2013-03-20 00:42:00,68.8,63.8,29.94,ESE,111,0.0,4.0,84,0.00,,SKC,0.00,VWS V14.01,2013-03-20 05:42:00,
2013-03-20 00:47:00,68.9,63.5,29.94,ESE,106,2.0,5.0,83,0.00,,SKC,0.00,VWS V14.01,2013-03-20 05:47:00,
2013-03-20 00:50:00,68.9,63.5,29.94,ESE,106,5.0,9.0,83,0.00,,SKC,0.00,VWS V14.01,2013-03-20 05:50:00,
2013-03-20 00:52:00,68.9,63.5,29.94,East,100,0.0,9.0,83,0.00,,SKC,0.00,VWS V14.01,2013-03-20 05:52:00,
2013-03-20 00:57:00,68.9,63.5,29.94,East,99,7.0,7.0,83,0.00,,SKC,0.00,VWS V14.01,2013-03-20 05:57:00,
2013-03-20 01:00:00,68.9,63.5,29.94,East,99,2.0,9.0,83,0.00,,SKC,0.00,VWS V14.01,2013-03-20 06:00:00,
2013-03-20 01:02:00,68.9,63.5,29.94,East,98,0.0,8.0,83,0.00,,SKC,0.00,VWS V14.01,2013-03-20 06:02:00,
2013-03-20 01:07:00,68.9,63.5,29.95,East,98,0.0,0.0,83,0.00,,SKC,0.00,VWS V14.01,2013-03-20 06:07:00,
2013-03-20 01:10:00,68.9,63.5,29.95,East,98,0.0,8.0,83,0.00,,SKC,0.00,VWS V14.01,2013-03-20 06:10:00,
2013-03-20 01:12:00,68.9,63.5,29.95,East,98,0.0,3.0,83,0.00,,SKC,0.00,VWS V14.01,2013-03-20 06:12:00,
2013-03-20 01:17:00,68.9,63.5,29.95,East,98,1.0,5.0,83,0.00,,SKC,0.00,VWS V14.01,2013-03-20 06:17:00,
2013-03-20 01:20:00,68.9,63.5,29.95,East,98,2.0,7.0,83,0.00,,SKC,0.00,VWS V14.01,2013-03-20 06:20:00,
2013-03-20 01:22:00,68.8,63.1,29.95,East,97,3.0,7.0,82,0.00,,SKC,0.00,VWS V14.01,2013-03-20 06:22:00,
2013-03-20 01:27:00,68.6,60.0,29.95,East,88,2.0,5.0,74,0.00,,SKC,0.00,VWS V14.01,2013-03-20 06:27:00,
2013-03-20 01:30:00,68.6,60.7,29.95,East,88,3.0,9.0,76,0.00,,SKC,0.00,VWS V14.01,2013-03-20 06:30:00,
2013-03-20 01:32:00,68.5,59.1,29.96,East,82,0.0,10.0,72,0.00,,SKC,0.00,VWS V14.01,2013-03-20 06:32:00,
2013-03-20 01:37:00,68.4,57.8,29.97,North,9,5.0,14.0,69,0.00,,SKC,0.00,VWS V14.01,2013-03-20 06:37:00,
2013-03-20 01:40:00,68.5,57.9,29.97,NNE,15,7.0,14.0,69,0.00,,SKC,0.00,VWS V14.01,2013-03-20 06:40:00,
2013-03-20 01:42:00,67.7,56.4,29.98,NNE,30,6.0,17.0,67,0.00,,SKC,0.00,VWS V14.01,2013-03-20 06:42:00,
2013-03-20 01:47:00,66.8,55.1,29.98,NNE,32,8.0,13.0,66,0.00,,SKC,0.00,VWS V14.01,2013-03-20 06:47:00,
2013-03-20 01:50:00,66.9,55.2,29.98,NE,51,12.0,17.0,66,0.00,,SKC,0.00,VWS V14.01,2013-03-20 06:50:00,
2013-03-20 01:52:00,66.1,54.4,29.98,NE,39,10.0,18.0,66,0.00,,SKC,0.00,VWS V14.01,2013-03-20 06:52:00,
2013-03-20 01:57:00,65.7,54.5,29.98,NNE,19,8.0,10.0,67,0.00,,SKC,0.00,VWS V14.01,2013-03-20 06:57:00,
2013-03-20 02:00:00,65.7,54.5,29.98,NNE,30,4.0,18.0,67,0.00,,SKC,0.00,VWS V14.01,2013-03-20 07:00:00,
2013-03-20 02:02:00,65.3,54.9,29.98,NE,39,6.0,11.0,69,0.00,,SKC,0.00,VWS V14.01,2013-03-20 07:02:00,
2013-03-20 02:07:00,64.9,54.9,29.98,NE,34,6.0,16.0,70,0.00,,SKC,0.00,VWS V14.01,2013-03-20 07:07:00,
2013-03-20 02:10:00,64.9,54.5,29.98,NNE,19,0.0,14.0,69,0.00,,SKC,0.00,VWS V14.01,2013-03-20 07:10:00,
2013-03-20 02:12:00,64.3,54.7,29.99,NE,42,1.0,16.0,71,0.00,,SKC,0.00,VWS V14.01,2013-03-20 07:12:00,
2013-03-20 02:17:00,63.8,54.2,30.00,NNE,17,6.0,14.0,71,0.00,,SKC,0.00,VWS V14.01,2013-03-20 07:17:00,
2013-03-20 02:20:00,63.9,54.7,30.00,NE,36,7.0,16.0,72,0.00,,SKC,0.00,VWS V14.01,2013-03-20 07:20:00,
2013-03-20 02:22:00,63.4,54.2,30.00,NNE,22,5.0,14.0,72,0.00,,SKC,0.00,VWS V14.01,2013-03-20 07:22:00,
2013-03-20 02:27:00,63.1,54.3,30.00,NNE,24,8.0,15.0,73,0.00,,SKC,0.00,VWS V14.01,2013-03-20 07:27:00,
2013-03-20 02:30:00,63.1,53.9,30.00,NNE,17,9.0,18.0,72,0.00,,SKC,0.00,VWS V14.01,2013-03-20 07:30:00,
2013-03-20 02:32:00,62.7,53.9,30.00,NE,53,15.0,24.0,73,0.00,,SKC,0.00,VWS V14.01,2013-03-20 07:32:00,
2013-03-20 02:37:00,62.4,53.6,30.01,NNE,27,5.0,17.0,73,0.00,,SKC,0.00,VWS V14.01,2013-03-20 07:37:00,
2013-03-20 02:40:00,62.5,53.7,30.01,NNE,20,11.0,24.0,73,0.00,,SKC,0.00,VWS V14.01,2013-03-20 07:40:00,
2013-03-20 02:42:00,62.0,53.3,30.01,NNE,24,10.0,20.0,73,0.00,,SKC,0.00,VWS V14.01,2013-03-20 07:42:00,
2013-03-20 02:47:00,61.6,52.9,30.01,NE,44,5.0,12.0,73,0.00,,SKC,0.00,VWS V14.01,2013-03-20 07:47:00,
2013-03-20 02:50:00,61.7,53.0,30.01,NE,36,4.0,20.0,73,0.00,,SKC,0.00,VWS V14.01,2013-03-20 07:50:00,
2013-03-20 02:52:00,61.4,52.7,30.01,NNE,19,6.0,14.0,73,0.00,,SKC,0.00,VWS V14.01,2013-03-20 07:52:00,
2013-03-20 02:57:00,61.2,52.5,30.01,NE,50,8.0,14.0,73,0.00,,SKC,0.00,VWS V14.01,2013-03-20 07:57:00,
2013-03-20 03:00:00,61.2,52.5,30.01,NE,34,4.0,17.0,73,0.00,,SKC,0.00,VWS V14.01,2013-03-20 08:00:00,
2013-03-20 03:02:00,60.9,52.2,30.01,NE,44,6.0,25.0,73,0.00,,SKC,0.00,VWS V14.01,2013-03-20 08:02:00,
2013-03-20 03:07:00,60.7,52.0,30.02,NNE,19,10.0,19.0,73,0.00,,SKC,0.00,VWS V14.01,2013-03-20 08:07:00,
2013-03-20 03:10:00,60.7,52.0,30.02,NE,47,14.0,25.0,73,0.00,,SKC,0.00,VWS V14.01,2013-03-20 08:10:00,
2013-03-20 03:12:00,60.5,52.2,30.02,NE,42,10.0,21.0,74,0.00,,SKC,0.00,VWS V14.01,2013-03-20 08:12:00,
2013-03-20 03:17:00,60.4,52.1,30.01,NNE,33,5.0,13.0,74,0.00,,SKC,0.00,VWS V14.01,2013-03-20 08:17:00,
2013-03-20 03:20:00,60.4,52.1,30.02,NE,44,4.0,24.0,74,0.00,,SKC,0.00,VWS V14.01,2013-03-20 08:20:00,
2013-03-20 03:22:00,60.4,52.5,30.01,NE,44,7.0,19.0,75,0.00,,SKC,0.00,VWS V14.01,2013-03-20 08:22:00,
2013-03-20 03:27:00,60.3,52.3,30.01,NE,46,13.0,13.0,75,0.00,,SKC,0.00,VWS V14.01,2013-03-20 08:27:00,
2013-03-20 03:30:00,60.4,52.5,30.02,NE,46,7.0,19.0,75,0.00,,SKC,0.00,VWS V14.01,2013-03-20 08:30:00,
2013-03-20 03:32:00,60.3,52.3,30.01,NE,47,2.0,18.0,75,0.00,,SKC,0.00,VWS V14.01,2013-03-20 08:32:00,
2013-03-20 03:37:00,60.3,52.7,30.01,NE,39,9.0,9.0,76,0.00,,SKC,0.00,VWS V14.01,2013-03-20 08:37:00,
2013-03-20 03:40:00,60.3,52.7,30.01,NE,46,8.0,18.0,76,0.00,,SKC,0.00,VWS V14.01,2013-03-20 08:40:00,
2013-03-20 03:42:00,60.2,52.6,30.01,NNE,33,3.0,20.0,76,0.00,,SKC,0.00,VWS V14.01,2013-03-20 08:42:00,
2013-03-20 03:47:00,60.2,52.6,30.01,NE,42,3.0,10.0,76,0.00,,SKC,0.00,VWS V14.01,2013-03-20 08:47:00,
2013-03-20 03:50:00,60.2,52.3,30.01,NE,43,3.0,20.0,75,0.00,,SKC,0.00,VWS V14.01,2013-03-20 08:50:00,
2013-03-20 03:52:00,60.2,52.6,30.01,NE,44,4.0,15.0,76,0.00,,SKC,0.00,VWS V14.01,2013-03-20 08:52:00,
2013-03-20 03:57:00,60.1,52.5,30.01,NE,50,0.0,7.0,76,0.00,,SKC,0.00,VWS V14.01,2013-03-20 08:57:00,
2013-03-20 04:00:00,60.1,52.5,30.01,NE,45,6.0,15.0,76,0.00,,SKC,0.00,VWS V14.01,2013-03-20 09:00:00,
2013-03-20 04:02:00,60.1,52.5,30.01,NE,43,10.0,14.0,76,0.00,,SKC,0.00,VWS V14.01,2013-03-20 09:02:00,
2013-03-20 04:07:00,60.0,52.4,30.01,NE,49,3.0,11.0,76,0.00,,SKC,0.00,VWS V14.01,2013-03-20 09:07:00,
2013-03-20 04:10:00,60.0,52.4,30.01,NE,42,4.0,14.0,76,0.00,,SKC,0.00,VWS V14.01,2013-03-20 09:10:00,
2013-03-20 04:12:00,60.0,52.4,30.01,NE,51,3.0,12.0,76,0.00,,SKC,0.00,VWS V14.01,2013-03-20 09:12:00,
2013-03-20 04:17:00,59.9,52.3,30.02,NE,35,9.0,13.0,76,0.00,,SKC,0.00,VWS V14.01,2013-03-20 09:17:00,
2013-03-20 04:20:00,59.9,52.3,30.02,NE,36,3.0,12.0,76,0.00,,SKC,0.00,VWS V14.01,2013-03-20 09:20:00,
2013-03-20 04:22:00,59.9,52.0,30.02,NE,52,1.0,13.0,75,0.00,,SKC,0.00,VWS V14.01,2013-03-20 09:22:00,
2013-03-20 04:27:00,60.0,52.4,30.02,NE,46,10.0,11.0,76,0.00,,SKC,0.00,VWS V14.01,2013-03-20 09:27:00,
2013-03-20 04:30:00,59.9,52.0,30.02,NE,41,8.0,13.0,75,0.00,,SKC,0.00,VWS V14.01,2013-03-20 09:30:00,
2013-03-20 04:32:00,59.9,52.0,30.03,NE,43,3.0,16.0,75,0.00,,SKC,0.00,VWS V14.01,2013-03-20 09:32:00,
2013-03-20 04:37:00,59.9,52.0,30.04,NE,50,0.0,10.0,75,0.00,,SKC,0.00,VWS V14.01,2013-03-20 09:37:00,
2013-03-20 04:40:00,60.0,52.1,30.04,ENE,58,10.0,16.0,75,0.00,,SKC,0.00,VWS V14.01,2013-03-20 09:40:00,
2013-03-20 04:42:00,59.9,52.0,30.05,NNE,15,1.0,14.0,75,0.00,,SKC,0.00,VWS V14.01,2013-03-20 09:42:00,
2013-03-20 04:47:00,60.0,52.1,30.05,NNE,21,8.0,13.0,75,0.00,,SKC,0.00,VWS V14.01,2013-03-20 09:47:00,
2013-03-20 04:50:00,59.9,52.0,30.05,NE,40,3.0,14.0,75,0.00,,SKC,0.00,VWS V14.01,2013-03-20 09:50:00,
2013-03-20 04:52:00,60.0,52.1,30.05,NE,39,6.0,22.0,75,0.00,,SKC,0.00,VWS V14.01,2013-03-20 09:52:00,
2013-03-20 04:58:00,59.9,52.0,30.03,NNE,20,6.0,13.0,75,0.00,,SKC,0.00,VWS V14.01,2013-03-20 09:58:00,
2013-03-20 05:00:00,59.9,52.0,30.03,NE,39,7.0,22.0,75,0.00,,SKC,0.00,VWS V14.01,2013-03-20 10:00:00,
2013-03-20 05:03:00,59.8,51.9,30.03,NE,36,3.0,13.0,75,0.00,,SKC,0.00,VWS V14.01,2013-03-20 10:03:00,
2013-03-20 05:08:00,59.7,51.8,30.04,NE,38,0.0,6.0,75,0.00,,SKC,0.00,VWS V14.01,2013-03-20 10:08:00,
2013-03-20 05:10:00,59.8,51.9,30.04,NNE,30,3.0,13.0,75,0.00,,SKC,0.00,VWS V14.01,2013-03-20 10:10:00,
2013-03-20 05:12:00,59.7,52.1,30.04,NE,40,3.0,13.0,76,0.00,,SKC,0.00,VWS V14.01,2013-03-20 10:12:00,
2013-03-20 05:18:00,59.6,52.0,30.04,NNE,33,0.0,11.0,76,0.00,,SKC,0.00,VWS V14.01,2013-03-20 10:18:00,
2013-03-20 05:20:00,59.6,52.0,30.04,NE,51,7.0,13.0,76,0.00,,SKC,0.00,VWS V14.01,2013-03-20 10:20:00,
2013-03-20 05:22:00,59.6,52.0,30.04,NE,37,6.0,11.0,76,0.00,,SKC,0.00,VWS V14.01,2013-03-20 10:22:00,
2013-03-20 05:27:00,59.5,51.9,30.05,NE,44,6.0,7.0,76,0.00,,SKC,0.00,VWS V14.01,2013-03-20 10:27:00,
2013-03-20 05:30:00,59.6,52.0,30.04,NE,40,1.0,11.0,76,0.00,,SKC,0.00,VWS V14.01,2013-03-20 10:30:00,
2013-03-20 05:32:00,59.4,51.8,30.05,NE,42,7.0,10.0,76,0.00,,SKC,0.00,VWS V14.01,2013-03-20 10:32:00,
2013-03-20 05:37:00,59.3,52.1,30.05,NE,36,0.0,7.0,77,0.00,,SKC,0.00,VWS V14.01,2013-03-20 10:37:00,
2013-03-20 05:40:00,59.4,52.2,30.05,NE,37,3.0,10.0,77,0.00,,SKC,0.00,VWS V14.01,2013-03-20 10:40:00,
2013-03-20 05:42:00,59.2,52.0,30.06,NE,44,4.0,10.0,77,0.00,,SKC,0.00,VWS V14.01,2013-03-20 10:42:00,
2013-03-20 05:47:00,59.1,52.3,30.06,NE,36,4.0,8.0,78,0.00,,SKC,0.00,VWS V14.01,2013-03-20 10:47:00,
2013-03-20 05:50:00,59.1,52.3,30.06,NE,36,1.0,10.0,78,0.00,,SKC,0.00,VWS V14.01,2013-03-20 10:50:00,
2013-03-20 05:52:00,59.0,52.2,30.07,NE,35,0.0,8.0,78,0.00,,SKC,0.00,VWS V14.01,2013-03-20 10:52:00,
2013-03-20 05:57:00,58.9,52.4,30.06,NNE,30,4.0,8.0,79,0.00,,SKC,0.00,VWS V14.01,2013-03-20 10:57:00,
2013-03-20 06:00:00,58.9,52.1,30.06,NNE,32,6.0,8.0,78,0.00,,SKC,0.00,VWS V14.01,2013-03-20 11:00:00,
2013-03-20 06:02:00,58.7,52.2,30.06,NE,36,0.0,9.0,79,0.00,,SKC,0.00,VWS V14.01,2013-03-20 11:02:00,
2013-03-20 06:07:00,58.6,52.1,30.06,NE,35,0.0,6.0,79,0.00,,SKC,0.00,VWS V14.01,2013-03-20 11:07:00,
2013-03-20 06:10:00,58.7,52.2,30.06,NE,35,6.0,9.0,79,0.00,,SKC,0.00,VWS V14.01,2013-03-20 11:10:00,
2013-03-20 06:12:00,58.5,52.0,30.07,NE,36,0.0,6.0,79,0.00,,SKC,0.00,VWS V14.01,2013-03-20 11:12:00,
2013-03-20 06:17:00,58.4,52.3,30.07,NE,34,1.0,8.0,80,0.00,,SKC,0.00,VWS V14.01,2013-03-20 11:17:00,
2013-03-20 06:20:00,58.5,52.4,30.07,NNE,33,0.0,7.0,80,0.00,,SKC,0.00,VWS V14.01,2013-03-20 11:20:00,
2013-03-20 06:22:00,58.3,52.2,30.08,NE,36,0.0,8.0,80,0.00,,SKC,0.00,VWS V14.01,2013-03-20 11:22:00,
2013-03-20 06:27:00,58.1,52.0,30.08,NE,40,0.0,5.0,80,0.00,,SKC,0.00,VWS V14.01,2013-03-20 11:27:00,
2013-03-20 06:30:00,58.2,52.1,30.08,NE,41,0.0,8.0,80,0.00,,SKC,0.00,VWS V14.01,2013-03-20 11:30:00,
2013-03-20 06:32:00,58.0,52.2,30.09,NNE,31,0.0,8.0,81,0.00,,SKC,0.00,VWS V14.01,2013-03-20 11:32:00,
2013-03-20 06:37:00,57.8,52.3,30.09,NNE,30,0.0,6.0,82,0.00,,SKC,0.00,VWS V14.01,2013-03-20 11:37:00,
2013-03-20 06:40:00,57.8,52.0,30.09,NE,34,6.0,8.0,81,0.00,,SKC,0.00,VWS V14.01,2013-03-20 11:40:00,
2013-03-20 06:42:00,57.6,52.2,30.09,NNE,23,3.0,11.0,82,0.00,,SKC,0.00,VWS V14.01,2013-03-20 11:42:00,
2013-03-20 06:47:00,57.4,52.3,30.10,NNE,17,0.0,9.0,83,0.00,,SKC,0.00,VWS V14.01,2013-03-20 11:47:00,
2013-03-20 06:50:00,57.5,52.4,30.10,NNE,19,3.0,11.0,83,0.00,,SKC,0.00,VWS V14.01,2013-03-20 11:50:00,
2013-03-20 06:52:00,57.2,52.1,30.11,NNE,19,4.0,11.0,83,0.00,,SKC,0.00,VWS V14.01,2013-03-20 11:52:00,
2013-03-20 06:57:00,56.9,52.1,30.11,NNE,21,3.0,5.0,84,0.00,,SKC,0.00,VWS V14.01,2013-03-20 11:57:00,
2013-03-20 07:00:00,57.0,52.2,30.11,NNE,20,4.0,11.0,84,0.00,,SKC,0.00,VWS V14.01,2013-03-20 12:00:00,
2013-03-20 07:02:00,56.8,52.3,30.11,NNE,22,0.0,6.0,85,0.00,,SKC,0.00,VWS V14.01,2013-03-20 12:02:00,
2013-03-20 07:07:00,56.8,52.3,30.11,NNE,26,0.0,5.0,85,0.00,,SKC,0.00,VWS V14.01,2013-03-20 12:07:00,
2013-03-20 07:10:00,56.8,52.3,30.11,NNE,26,2.0,7.0,85,0.00,,SKC,0.00,VWS V14.01,2013-03-20 12:10:00,
2013-03-20 07:12:00,56.7,52.2,30.11,North,10,10.0,10.0,85,0.00,,SKC,0.00,VWS V14.01,2013-03-20 12:12:00,
2013-03-20 07:17:00,56.8,52.3,30.12,NNE,21,4.0,9.0,85,0.00,,SKC,0.00,VWS V14.01,2013-03-20 12:17:00,
2013-03-20 07:20:00,56.8,52.3,30.11,NNE,19,9.0,12.0,85,0.00,,SKC,0.00,VWS V14.01,2013-03-20 12:20:00,
2013-03-20 07:22:00,56.9,52.4,30.12,NNE,14,2.0,9.0,85,0.00,,SKC,0.00,VWS V14.01,2013-03-20 12:22:00,
2013-03-20 07:27:00,56.9,52.4,30.12,NNE,14,9.0,11.0,85,0.00,,SKC,0.00,VWS V14.01,2013-03-20 12:27:00,
2013-03-20 07:30:00,56.9,52.4,30.12,NNE,14,0.0,9.0,85,0.00,,SKC,0.00,VWS V14.01,2013-03-20 12:30:00,
2013-03-20 07:32:00,57.0,52.5,30.12,NNE,17,0.0,11.0,85,0.00,,SKC,0.00,VWS V14.01,2013-03-20 12:32:00,
2013-03-20 07:38:00,57.1,52.6,30.13,NNE,24,0.0,6.0,85,0.00,,SKC,0.00,VWS V14.01,2013-03-20 12:38:00,
2013-03-20 07:40:00,57.1,52.6,30.13,NNE,23,5.0,11.0,85,0.00,,SKC,0.00,VWS V14.01,2013-03-20 12:40:00,
2013-03-20 07:43:00,57.1,52.6,30.13,North,11,0.0,10.0,85,0.00,,SKC,0.00,VWS V14.01,2013-03-20 12:43:00,
2013-03-20 07:48:00,57.2,52.7,30.13,NNE,26,3.0,9.0,85,0.00,,SKC,0.00,VWS V14.01,2013-03-20 12:48:00,
2013-03-20 07:50:00,57.2,52.7,30.14,NNE,15,0.0,10.0,85,0.00,,SKC,0.00,VWS V14.01,2013-03-20 12:50:00,
2013-03-20 07:52:00,57.3,52.5,30.14,North,10,7.0,9.0,84,0.00,,SKC,0.00,VWS V14.01,2013-03-20 12:52:00,
2013-03-20 07:57:00,57.4,52.6,30.14,NNE,17,0.0,6.0,84,0.00,,SKC,0.00,VWS V14.01,2013-03-20 12:57:00,
2013-03-20 08:00:00,57.3,52.5,30.14,NNE,18,0.0,11.0,84,0.00,,SKC,0.00,VWS V14.01,2013-03-20 13:00:00,
2013-03-20 08:02:00,57.5,52.7,30.15,North,9,4.0,10.0,84,0.00,,SKC,0.00,VWS V14.01,2013-03-20 13:02:00,
2013-03-20 08:07:00,57.5,52.7,30.16,North,5,0.0,7.0,84,0.00,,SKC,0.00,VWS V14.01,2013-03-20 13:07:00,
2013-03-20 08:10:00,57.5,52.7,30.15,North,5,0.0,10.0,84,0.00,,SKC,0.00,VWS V14.01,2013-03-20 13:10:00,
2013-03-20 08:12:00,57.5,52.7,30.16,North,5,0.0,7.0,84,0.00,,SKC,0.00,VWS V14.01,2013-03-20 13:12:00,
2013-03-20 08:17:00,57.6,52.8,30.16,NNE,22,5.0,9.0,84,0.00,,SKC,0.00,VWS V14.01,2013-03-20 13:17:00,
2013-03-20 08:20:00,57.6,52.8,30.16,North,9,1.0,7.0,84,0.00,,SKC,0.00,VWS V14.01,2013-03-20 13:20:00,
2013-03-20 08:22:00,57.6,52.8,30.16,NNE,15,4.0,10.0,84,0.00,,SKC,0.00,VWS V14.01,2013-03-20 13:22:00,
2013-03-20 08:27:00,57.7,52.9,30.16,North,5,5.0,8.0,84,0.00,,SKC,0.00,VWS V14.01,2013-03-20 13:27:00,
2013-03-20 08:30:00,57.7,52.9,30.16,North,5,5.0,11.0,84,0.00,,SKC,0.00,VWS V14.01,2013-03-20 13:30:00,
2013-03-20 08:32:00,57.8,52.7,30.16,NNE,23,5.0,11.0,83,0.00,,SKC,0.00,VWS V14.01,2013-03-20 13:32:00,
2013-03-20 08:37:00,57.8,52.7,30.16,North,5,0.0,11.0,83,0.00,,SKC,0.00,VWS V14.01,2013-03-20 13:37:00,
2013-03-20 08:40:00,57.8,52.7,30.16,NNE,25,0.0,12.0,83,0.00,,SKC,0.00,VWS V14.01,2013-03-20 13:40:00,
2013-03-20 08:42:00,57.9,52.8,30.17,NNE,17,7.0,11.0,83,0.00,,SKC,0.00,VWS V14.01,2013-03-20 13:42:00,
2013-03-20 08:47:00,58.0,52.9,30.17,NNE,19,0.0,13.0,83,0.00,,SKC,0.00,VWS V14.01,2013-03-20 13:47:00,
2013-03-20 08:50:00,58.0,52.9,30.17,NNE,24,0.0,12.0,83,0.00,,SKC,0.00,VWS V14.01,2013-03-20 13:50:00,
2013-03-20 08:52:00,58.1,53.0,30.17,NNE,22,0.0,13.0,83,0.00,,SKC,0.00,VWS V14.01,2013-03-20 13:52:00,
2013-03-20 08:57:00,58.2,52.7,30.17,NNE,17,0.0,5.0,82,0.00,,SKC,0.00,VWS V14.01,2013-03-20 13:57:00,
2013-03-20 09:00:00,58.2,53.1,30.17,NNE,16,5.0,13.0,83,0.00,,SKC,0.00,VWS V14.01,2013-03-20 14:00:00,
2013-03-20 09:02:00,58.4,52.9,30.17,NNE,18,0.0,9.0,82,0.00,,SKC,0.00,VWS V14.01,2013-03-20 14:02:00,
2013-03-20 09:07:00,58.5,53.0,30.17,North,11,5.0,9.0,82,0.00,,SKC,0.00,VWS V14.01,2013-03-20 14:07:00,
2013-03-20 09:10:00,58.5,53.0,30.17,North,11,6.0,9.0,82,0.00,,SKC,0.00,VWS V14.01,2013-03-20 14:10:00,
2013-03-20 09:12:00,58.7,52.9,30.17,NNE,19,0.0,10.0,81,0.00,,SKC,0.00,VWS V14.01,2013-03-20 14:12:00,
2013-03-20 09:17:00,58.9,53.1,30.17,NNE,21,9.0,13.0,81,0.00,,SKC,0.00,VWS V14.01,2013-03-20 14:17:00,
2013-03-20 09:20:00,58.9,53.1,30.17,NNE,13,10.0,10.0,81,0.00,,SKC,0.00,VWS V14.01,2013-03-20 14:20:00,
2013-03-20 09:23:00,59.0,52.8,30.17,North,355,8.0,13.0,80,0.00,,SKC,0.00,VWS V14.01,2013-03-20 14:23:00,
2013-03-20 09:28:00,59.0,52.8,30.17,North,5,5.0,8.0,80,0.00,,SKC,0.00,VWS V14.01,2013-03-20 14:28:00,
2013-03-20 09:30:00,59.0,52.8,30.17,NNE,12,0.0,13.0,80,0.00,,SKC,0.00,VWS V14.01,2013-03-20 14:30:00,
2013-03-20 09:32:00,59.1,52.9,30.17,NNE,25,3.0,11.0,80,0.00,,SKC,0.00,VWS V14.01,2013-03-20 14:32:00,
2013-03-20 09:37:00,59.4,53.2,30.17,NNE,28,0.0,5.0,80,0.00,,SKC,0.00,VWS V14.01,2013-03-20 14:37:00,
2013-03-20 09:40:00,59.3,53.1,30.17,NNE,28,5.0,11.0,80,0.00,,SKC,0.00,VWS V14.01,2013-03-20 14:40:00,
2013-03-20 09:42:00,59.6,53.1,30.18,NNE,28,0.0,7.0,79,0.00,,SKC,0.00,VWS V14.01,2013-03-20 14:42:00,
2013-03-20 09:47:00,59.7,52.8,30.18,NNE,16,0.0,6.0,78,0.00,,SKC,0.00,VWS V14.01,2013-03-20 14:47:00,
2013-03-20 09:50:00,59.7,52.8,30.18,NNE,17,0.0,11.0,78,0.00,,SKC,0.00,VWS V14.01,2013-03-20 14:50:00,
2013-03-20 09:52:00,59.6,52.7,30.18,NNE,16,0.0,12.0,78,0.00,,SKC,0.00,VWS V14.01,2013-03-20 14:52:00,
2013-03-20 09:57:00,59.6,52.4,30.18,NNE,13,5.0,10.0,77,0.00,,SKC,0.00,VWS V14.01,2013-03-20 14:57:00,
2013-03-20 10:00:00,59.6,52.7,30.18,North,10,10.0,12.0,78,0.00,,SKC,0.00,VWS V14.01,2013-03-20 15:00:00,
2013-03-20 10:02:00,59.7,52.5,30.18,NNE,14,0.0,10.0,77,0.00,,SKC,0.00,VWS V14.01,2013-03-20 15:02:00,
2013-03-20 10:08:00,60.0,52.8,30.18,NNE,19,2.0,2.0,77,0.00,,SKC,0.00,VWS V14.01,2013-03-20 15:08:00,
2013-03-20 10:10:00,59.9,52.7,30.18,NNE,16,0.0,10.0,77,0.00,,SKC,0.00,VWS V14.01,2013-03-20 15:10:00,
2013-03-20 10:13:00,60.6,53.0,30.18,NNE,25,0.0,8.0,76,0.00,,SKC,0.00,VWS V14.01,2013-03-20 15:13:00,
2013-03-20 10:18:00,61.2,52.9,30.18,NNE,19,0.0,0.0,74,0.00,,SKC,0.00,VWS V14.01,2013-03-20 15:18:00,
2013-03-20 10:20:00,61.1,53.1,30.18,NNE,21,0.0,8.0,75,0.00,,SKC,0.00,VWS V14.01,2013-03-20 15:20:00,
2013-03-20 10:22:00,61.5,52.8,30.18,North,360,0.0,0.0,73,0.00,,SKC,0.00,VWS V14.01,2013-03-20 15:22:00,
2013-03-20 10:27:00,61.5,52.8,30.18,North,355,0.0,0.0,73,0.00,,SKC,0.00,VWS V14.01,2013-03-20 15:27:00,
2013-03-20 10:30:00,61.5,52.4,30.18,North,5,0.0,0.0,72,0.00,,SKC,0.00,VWS V14.01,2013-03-20 15:30:00,
2013-03-20 10:32:00,61.3,52.6,30.19,NNE,30,0.0,1.0,73,0.00,,SKC,0.00,VWS V14.01,2013-03-20 15:32:00,
2013-03-20 10:37:00,61.0,52.3,30.19,North,9,4.0,9.0,73,0.00,,SKC,0.00,VWS V14.01,2013-03-20 15:37:00,
2013-03-20 10:40:00,61.1,52.4,30.19,North,355,0.0,1.0,73,0.00,,SKC,0.00,VWS V14.01,2013-03-20 15:40:00,
2013-03-20 10:42:00,60.9,52.6,30.19,NNE,17,0.0,15.0,74,0.00,,SKC,0.00,VWS V14.01,2013-03-20 15:42:00,
2013-03-20 10:47:00,61.4,53.0,30.19,NNE,30,3.0,6.0,74,0.00,,SKC,0.00,VWS V14.01,2013-03-20 15:47:00,
2013-03-20 10:50:00,61.3,53.0,30.19,NNE,30,0.0,15.0,74,0.00,,SKC,0.00,VWS V14.01,2013-03-20 15:50:00,
2013-03-20 10:52:00,62.2,53.1,30.19,NNE,17,0.0,14.0,72,0.00,,SKC,0.00,VWS V14.01,2013-03-20 15:52:00,
2013-03-20 10:57:00,62.6,53.1,30.19,North,360,0.0,10.0,71,0.00,,SKC,0.00,VWS V14.01,2013-03-20 15:57:00,
2013-03-20 11:00:00,62.5,53.0,30.19,NNE,20,0.0,14.0,71,0.00,,SKC,0.00,VWS V14.01,2013-03-20 16:00:00,
2013-03-20 11:02:00,62.5,52.6,30.19,NNE,22,3.0,10.0,70,0.00,,SKC,0.00,VWS V14.01,2013-03-20 16:02:00,
2013-03-20 11:07:00,62.2,52.3,30.19,NNW,344,0.0,11.0,70,0.00,,SKC,0.00,VWS V14.01,2013-03-20 16:07:00,
2013-03-20 11:10:00,62.2,52.3,30.19,NE,34,0.0,13.0,70,0.00,,SKC,0.00,VWS V14.01,2013-03-20 16:10:00,
2013-03-20 11:12:00,62.3,52.8,30.19,NNE,28,0.0,11.0,71,0.00,,SKC,0.00,VWS V14.01,2013-03-20 16:12:00,
2013-03-20 11:17:00,62.6,52.3,30.19,NNE,15,0.0,0.0,69,0.00,,SKC,0.00,VWS V14.01,2013-03-20 16:17:00,
2013-03-20 11:20:00,62.6,52.7,30.20,NE,46,0.0,11.0,70,0.00,,SKC,0.00,VWS V14.01,2013-03-20 16:20:00,
2013-03-20 11:22:00,62.3,52.0,30.20,North,5,0.0,0.0,69,0.00,,SKC,0.00,VWS V14.01,2013-03-20 16:22:00,
2013-03-20 11:27:00,62.2,52.3,30.20,North,11,0.0,0.0,70,0.00,,SKC,0.00,VWS V14.01,2013-03-20 16:27:00,
2013-03-20 11:30:00,62.3,52.4,30.20,North,5,0.0,0.0,70,0.00,,SKC,0.00,VWS V14.01,2013-03-20 16:30:00,
2013-03-20 11:32:00,62.3,52.4,30.20,NNE,14,0.0,0.0,70,0.00,,SKC,0.00,VWS V14.01,2013-03-20 16:32:00,
2013-03-20 11:37:00,62.2,51.9,30.19,NE,37,0.0,0.0,69,0.00,,SKC,0.00,VWS V14.01,2013-03-20 16:37:00,
2013-03-20 11:40:00,62.3,52.0,30.19,NE,42,0.0,0.0,69,0.00,,SKC,0.00,VWS V14.01,2013-03-20 16:40:00,
2013-03-20 11:42:00,62.3,52.4,30.19,North,11,0.0,0.0,70,0.00,,SKC,0.00,VWS V14.01,2013-03-20 16:42:00,
2013-03-20 11:47:00,63.0,52.7,30.19,NE,51,0.0,0.0,69,0.00,,SKC,0.00,VWS V14.01,2013-03-20 16:47:00,
2013-03-20 11:50:00,62.9,52.6,30.19,NE,55,0.0,0.0,69,0.00,,SKC,0.00,VWS V14.01,2013-03-20 16:50:00,
2013-03-20 11:52:00,63.4,52.3,30.19,NNE,12,0.0,0.0,67,0.00,,SKC,0.00,VWS V14.01,2013-03-20 16:52:00,
2013-03-20 11:57:00,64.0,52.4,30.19,NNE,17,0.0,0.0,66,0.00,,SKC,0.00,VWS V14.01,2013-03-20 16:57:00,
2013-03-20 12:00:00,63.8,52.2,30.19,NE,36,0.0,0.0,66,0.00,,SKC,0.00,VWS V14.01,2013-03-20 17:00:00,
2013-03-20 12:02:00,64.3,52.3,30.19,NNE,19,0.0,0.0,65,0.00,,SKC,0.00,VWS V14.01,2013-03-20 17:02:00,
2013-03-20 12:07:00,64.5,52.1,30.19,NE,34,0.0,0.0,64,0.00,,SKC,0.00,VWS V14.01,2013-03-20 17:07:00,
2013-03-20 12:10:00,64.4,52.4,30.19,NE,43,0.0,0.0,65,0.00,,SKC,0.00,VWS V14.01,2013-03-20 17:10:00,
2013-03-20 12:12:00,65.2,53.2,30.19,NE,46,0.0,0.0,65,0.00,,SKC,0.00,VWS V14.01,2013-03-20 17:12:00,
2013-03-20 12:17:00,66.3,52.9,30.19,North,5,0.0,0.0,62,0.00,,SKC,0.00,VWS V14.01,2013-03-20 17:17:00,
2013-03-20 12:20:00,66.1,52.7,30.19,NE,49,0.0,0.0,62,0.00,,SKC,0.00,VWS V14.01,2013-03-20 17:20:00,
2013-03-20 12:22:00,67.1,52.8,30.19,NNE,24,0.0,0.0,60,0.00,,SKC,0.00,VWS V14.01,2013-03-20 17:22:00,
2013-03-20 12:27:00,67.8,52.0,30.19,NE,51,0.0,0.0,57,0.00,,SKC,0.00,VWS V14.01,2013-03-20 17:27:00,
2013-03-20 12:30:00,67.7,52.4,30.19,NE,45,0.0,0.0,58,0.00,,SKC,0.00,VWS V14.01,2013-03-20 17:30:00,
2013-03-20 12:32:00,68.2,52.9,30.19,NE,55,0.0,0.0,58,0.00,,SKC,0.00,VWS V14.01,2013-03-20 17:32:00,
2013-03-20 12:37:00,68.7,53.3,30.19,NE,36,0.0,0.0,58,0.00,,SKC,0.00,VWS V14.01,2013-03-20 17:37:00,
2013-03-20 12:40:00,68.6,53.2,30.19,NE,47,0.0,0.0,58,0.00,,SKC,0.00,VWS V14.01,2013-03-20 17:40:00,
2013-03-20 12:42:00,68.9,52.6,30.19,NNE,27,0.0,0.0,56,0.00,,SKC,0.00,VWS V14.01,2013-03-20 17:42:00,
2013-03-20 12:47:00,69.0,52.7,30.19,North,5,0.0,0.0,56,0.00,,SKC,0.00,VWS V14.01,2013-03-20 17:47:00,
2013-03-20 12:50:00,69.0,52.7,30.19,NNE,32,0.0,0.0,56,0.00,,SKC,0.00,VWS V14.01,2013-03-20 17:50:00,
2013-03-20 12:52:00,69.1,52.3,30.18,NE,34,0.0,0.0,55,0.00,,SKC,0.00,VWS V14.01,2013-03-20 17:52:00,
2013-03-20 12:57:00,69.1,52.8,30.18,NE,46,0.0,0.0,56,0.00,,SKC,0.00,VWS V14.01,2013-03-20 17:57:00,
2013-03-20 13:00:00,69.1,52.8,30.18,NE,51,0.0,0.0,56,0.00,,SKC,0.00,VWS V14.01,2013-03-20 18:00:00,
2013-03-20 13:02:00,69.2,51.4,30.18,NE,48,0.0,0.0,53,0.00,,SKC,0.00,VWS V14.01,2013-03-20 18:02:00,
2013-03-20 13:07:00,69.2,51.9,30.18,NE,49,0.0,0.0,54,0.00,,SKC,0.00,VWS V14.01,2013-03-20 18:07:00,
2013-03-20 13:10:00,69.2,51.4,30.18,NE,55,0.0,0.0,53,0.00,,SKC,0.00,VWS V14.01,2013-03-20 18:10:00,
2013-03-20 13:12:00,69.3,52.0,30.17,NE,47,0.0,0.0,54,0.00,,SKC,0.00,VWS V14.01,2013-03-20 18:12:00,
2013-03-20 13:17:00,69.4,50.0,30.17,NNE,19,0.0,0.0,50,0.00,,SKC,0.00,VWS V14.01,2013-03-20 18:17:00,
2013-03-20 13:20:00,69.4,51.0,30.17,NNE,32,0.0,0.0,52,0.00,,SKC,0.00,VWS V14.01,2013-03-20 18:20:00,
2013-03-20 13:22:00,69.4,48.3,30.17,NNE,24,0.0,0.0,47,0.00,,SKC,0.00,VWS V14.01,2013-03-20 18:22:00,
2013-03-20 13:27:00,69.5,49.5,30.17,NE,46,0.0,0.0,49,0.00,,SKC,0.00,VWS V14.01,2013-03-20 18:27:00,
2013-03-20 13:30:00,69.4,50.5,30.17,ENE,59,0.0,0.0,51,0.00,,SKC,0.00,VWS V14.01,2013-03-20 18:30:00,
2013-03-20 13:32:00,69.5,51.1,30.17,NE,34,0.0,0.0,52,0.00,,SKC,0.00,VWS V14.01,2013-03-20 18:32:00,
2013-03-20 13:37:00,69.8,50.9,30.17,ENE,60,0.0,0.0,51,0.00,,SKC,0.00,VWS V14.01,2013-03-20 18:37:00,
2013-03-20 13:40:00,69.7,50.8,30.17,NE,53,0.0,0.0,51,0.00,,SKC,0.00,VWS V14.01,2013-03-20 18:40:00,
2013-03-20 13:42:00,70.1,50.6,30.16,NE,53,0.0,0.0,50,0.00,,SKC,0.00,VWS V14.01,2013-03-20 18:42:00,
2013-03-20 13:47:00,70.6,50.5,30.16,NE,40,0.0,0.0,49,0.00,,SKC,0.00,VWS V14.01,2013-03-20 18:47:00,
2013-03-20 13:50:00,70.5,50.4,30.16,ENE,63,0.0,0.0,49,0.00,,SKC,0.00,VWS V14.01,2013-03-20 18:50:00,
2013-03-20 13:52:00,70.6,50.0,30.16,NE,42,0.0,0.0,48,0.00,,SKC,0.00,VWS V14.01,2013-03-20 18:52:00,
2013-03-20 13:57:00,70.8,49.0,30.16,NNE,18,0.0,0.0,46,0.00,,SKC,0.00,VWS V14.01,2013-03-20 18:57:00,
2013-03-20 14:00:00,70.8,49.6,30.16,NE,56,0.0,0.0,47,0.00,,SKC,0.00,VWS V14.01,2013-03-20 19:00:00,
2013-03-20 14:02:00,70.8,49.0,30.15,NE,45,0.0,0.0,46,0.00,,SKC,0.00,VWS V14.01,2013-03-20 19:02:00,
2013-03-20 14:07:00,71.2,50.0,30.14,NE,53,0.0,0.0,47,0.00,,SKC,0.00,VWS V14.01,2013-03-20 19:07:00,
2013-03-20 14:10:00,71.1,49.3,30.15,North,9,0.0,0.0,46,0.00,,SKC,0.00,VWS V14.01,2013-03-20 19:10:00,
2013-03-20 14:12:00,71.3,49.5,30.14,ENE,61,0.0,0.0,46,0.00,,SKC,0.00,VWS V14.01,2013-03-20 19:12:00,
2013-03-20 14:17:00,71.5,49.1,30.15,NE,38,0.0,0.0,45,0.00,,SKC,0.00,VWS V14.01,2013-03-20 19:17:00,
2013-03-20 14:20:00,71.5,49.7,30.15,NE,49,0.0,0.0,46,0.00,,SKC,0.00,VWS V14.01,2013-03-20 19:20:00,
2013-03-20 14:22:00,71.7,48.7,30.15,NE,42,0.0,0.0,44,0.00,,SKC,0.00,VWS V14.01,2013-03-20 19:22:00,
2013-03-20 14:27:00,71.7,48.0,30.14,NNE,28,0.0,0.0,43,0.00,,SKC,0.00,VWS V14.01,2013-03-20 19:27:00,
2013-03-20 14:30:00,71.7,48.0,30.14,NE,56,0.0,0.0,43,0.00,,SKC,0.00,VWS V14.01,2013-03-20 19:30:00,
2013-03-20 14:32:00,71.7,48.7,30.14,East,89,0.0,0.0,44,0.00,,SKC,0.00,VWS V14.01,2013-03-20 19:32:00,
2013-03-20 14:37:00,71.8,47.5,30.14,NNE,27,0.0,0.0,42,0.00,,SKC,0.00,VWS V14.01,2013-03-20 19:37:00,
2013-03-20 14:40:00,71.8,48.7,30.14,NE,49,0.0,0.0,44,0.00,,SKC,0.00,VWS V14.01,2013-03-20 19:40:00,
2013-03-20 14:42:00,72.2,47.2,30.13,NNE,19,0.0,0.0,41,0.00,,SKC,0.00,VWS V14.01,2013-03-20 19:42:00,
2013-03-20 14:47:00,72.3,46.7,30.13,NE,37,0.0,0.0,40,0.00,,SKC,0.00,VWS V14.01,2013-03-20 19:47:00,
2013-03-20 14:50:00,72.3,46.7,30.13,NE,49,0.0,0.0,40,0.00,,SKC,0.00,VWS V14.01,2013-03-20 19:50:00,
2013-03-20 14:52:00,72.5,47.5,30.13,NE,39,0.0,0.0,41,0.00,,SKC,0.00,VWS V14.01,2013-03-20 19:52:00,
2013-03-20 14:57:00,72.6,46.9,30.12,NNE,22,0.0,0.0,40,0.00,,SKC,0.00,VWS V14.01,2013-03-20 19:57:00,
2013-03-20 15:00:00,72.6,46.9,30.12,NE,38,0.0,0.0,40,0.00,,SKC,0.00,VWS V14.01,2013-03-20 20:00:00,
2013-03-20 15:02:00,72.8,47.8,30.12,NE,48,0.0,0.0,41,0.00,,SKC,0.00,VWS V14.01,2013-03-20 20:02:00,
2013-03-20 15:08:00,73.1,47.4,30.12,ENE,69,0.0,0.0,40,0.00,,SKC,0.00,VWS V14.01,2013-03-20 20:08:00,
2013-03-20 15:10:00,73.0,47.3,30.12,NE,54,0.0,0.0,40,0.00,,SKC,0.00,VWS V14.01,2013-03-20 20:10:00,
2013-03-20 15:12:00,73.1,48.0,30.11,East,82,0.0,0.0,41,0.00,,SKC,0.00,VWS V14.01,2013-03-20 20:12:00,
2013-03-20 15:17:00,73.1,48.0,30.11,NE,55,0.0,0.0,41,0.00,,SKC,0.00,VWS V14.01,2013-03-20 20:17:00,
2013-03-20 15:20:00,73.1,48.0,30.11,ENE,59,0.0,0.0,41,0.00,,SKC,0.00,VWS V14.01,2013-03-20 20:20:00,
2013-03-20 15:22:00,73.1,47.4,30.11,NE,36,0.0,0.0,40,0.00,,SKC,0.00,VWS V14.01,2013-03-20 20:22:00,
2013-03-20 15:27:00,73.1,46.7,30.11,NNE,28,0.0,0.0,39,0.00,,SKC,0.00,VWS V14.01,2013-03-20 20:27:00,
2013-03-20 15:30:00,73.1,47.4,30.11,NE,34,0.0,0.0,40,0.00,,SKC,0.00,VWS V14.01,2013-03-20 20:30:00,
2013-03-20 15:32:00,73.2,47.5,30.11,ENE,57,0.0,0.0,40,0.00,,SKC,0.00,VWS V14.01,2013-03-20 20:32:00,
2013-03-20 15:37:00,73.6,47.8,30.10,NE,47,0.0,0.0,40,0.00,,SKC,0.00,VWS V14.01,2013-03-20 20:37:00,
2013-03-20 15:40:00,73.5,47.7,30.10,NE,36,0.0,0.0,40,0.00,,SKC,0.00,VWS V14.01,2013-03-20 20:40:00,
2013-03-20 15:42:00,73.7,47.2,30.10,ENE,64,0.0,0.0,39,0.00,,SKC,0.00,VWS V14.01,2013-03-20 20:42:00,
2013-03-20 15:47:00,74.0,46.1,30.10,East,95,0.0,0.0,37,0.00,,SKC,0.00,VWS V14.01,2013-03-20 20:47:00,
2013-03-20 15:50:00,73.9,46.7,30.11,ENE,64,0.0,0.0,38,0.00,,SKC,0.00,VWS V14.01,2013-03-20 20:50:00,
2013-03-20 15:52:00,73.8,45.9,30.11,NE,40,0.0,0.0,37,0.00,,SKC,0.00,VWS V14.01,2013-03-20 20:52:00,
2013-03-20 15:57:00,73.9,45.3,30.10,NE,51,0.0,0.0,36,0.00,,SKC,0.00,VWS V14.01,2013-03-20 20:57:00,
2013-03-20 16:00:00,73.9,46.7,30.10,ENE,59,0.0,0.0,38,0.00,,SKC,0.00,VWS V14.01,2013-03-20 21:00:00,
2013-03-20 16:02:00,74.2,46.3,30.10,NE,37,0.0,0.0,37,0.00,,SKC,0.00,VWS V14.01,2013-03-20 21:02:00,
2013-03-20 16:07:00,74.2,46.3,30.09,ENE,65,0.0,0.0,37,0.00,,SKC,0.00,VWS V14.01,2013-03-20 21:07:00,
2013-03-20 16:10:00,74.3,46.4,30.09,ENE,65,0.0,0.0,37,0.00,,SKC,0.00,VWS V14.01,2013-03-20 21:10:00,
2013-03-20 16:12:00,73.9,46.0,30.09,ENE,59,0.0,0.0,37,0.00,,SKC,0.00,VWS V14.01,2013-03-20 21:12:00,
2013-03-20 16:17:00,73.9,46.0,30.08,NE,40,0.0,0.0,37,0.00,,SKC,0.00,VWS V14.01,2013-03-20 21:17:00,
2013-03-20 16:20:00,73.9,46.0,30.08,ENE,65,0.0,0.0,37,0.00,,SKC,0.00,VWS V14.01,2013-03-20 21:20:00,
2013-03-20 16:22:00,73.9,46.0,30.08,ENE,67,0.0,0.0,37,0.00,,SKC,0.00,VWS V14.01,2013-03-20 21:22:00,
2013-03-20 16:27:00,73.9,45.3,30.08,NE,47,0.0,0.0,36,0.00,,SKC,0.00,VWS V14.01,2013-03-20 21:27:00,
2013-03-20 16:30:00,73.8,45.9,30.09,NE,50,0.0,0.0,37,0.00,,SKC,0.00,VWS V14.01,2013-03-20 21:30:00,
2013-03-20 16:32:00,74.1,46.2,30.09,NE,50,0.0,0.0,37,0.00,,SKC,0.00,VWS V14.01,2013-03-20 21:32:00,
2013-03-20 16:37:00,74.2,46.3,30.08,NE,44,0.0,0.0,37,0.00,,SKC,0.00,VWS V14.01,2013-03-20 21:37:00,
2013-03-20 16:40:00,74.2,46.3,30.08,NE,50,0.0,0.0,37,0.00,,SKC,0.00,VWS V14.01,2013-03-20 21:40:00,
2013-03-20 16:42:00,74.3,44.1,30.07,NNE,31,0.0,0.0,34,0.00,,SKC,0.00,VWS V14.01,2013-03-20 21:42:00,
2013-03-20 16:47:00,74.4,45.0,30.07,ENE,67,0.0,0.0,35,0.00,,SKC,0.00,VWS V14.01,2013-03-20 21:47:00,
2013-03-20 16:50:00,74.4,45.0,30.07,ENE,67,0.0,0.0,35,0.00,,SKC,0.00,VWS V14.01,2013-03-20 21:50:00,
2013-03-20 16:52:00,74.4,45.0,30.07,NE,55,0.0,0.0,35,0.00,,SKC,0.00,VWS V14.01,2013-03-20 21:52:00,
2013-03-20 16:57:00,74.3,44.1,30.07,NE,54,0.0,0.0,34,0.00,,SKC,0.00,VWS V14.01,2013-03-20 21:57:00,
2013-03-20 17:00:00,74.3,44.2,30.07,NE,51,0.0,0.0,34,0.00,,SKC,0.00,VWS V14.01,2013-03-20 22:00:00,
2013-03-20 17:02:00,74.2,44.1,30.06,ESE,103,0.0,0.0,34,0.00,,SKC,0.00,VWS V14.01,2013-03-20 22:02:00,
2013-03-20 17:07:00,73.7,44.4,30.06,East,98,0.0,0.0,35,0.00,,SKC,0.00,VWS V14.01,2013-03-20 22:07:00,
2013-03-20 17:10:00,73.8,43.7,30.06,ESE,106,0.0,0.0,34,0.00,,SKC,0.00,VWS V14.01,2013-03-20 22:10:00,
2013-03-20 17:12:00,73.5,44.2,30.05,ENE,65,0.0,0.0,35,0.00,,SKC,0.00,VWS V14.01,2013-03-20 22:12:00,
2013-03-20 17:17:00,73.7,42.8,30.05,NE,46,0.0,0.0,33,0.00,,SKC,0.00,VWS V14.01,2013-03-20 22:17:00,
2013-03-20 17:20:00,73.6,42.8,30.05,NE,46,0.0,0.0,33,0.00,,SKC,0.00,VWS V14.01,2013-03-20 22:20:00,
2013-03-20 17:22:00,74.0,43.9,30.05,NE,47,0.0,0.0,34,0.00,,SKC,0.00,VWS V14.01,2013-03-20 22:22:00,
2013-03-20 17:27:00,74.6,44.4,30.05,NE,55,0.0,0.0,34,0.00,,SKC,0.00,VWS V14.01,2013-03-20 22:27:00,
2013-03-20 17:30:00,74.4,45.0,30.06,ENE,65,0.0,0.0,35,0.00,,SKC,0.00,VWS V14.01,2013-03-20 22:30:00,
2013-03-20 17:32:00,74.8,43.8,30.06,ENE,59,0.0,0.0,33,0.00,,SKC,0.00,VWS V14.01,2013-03-20 22:32:00,
2013-03-20 17:37:00,74.8,43.0,30.06,East,85,0.0,0.0,32,0.00,,SKC,0.00,VWS V14.01,2013-03-20 22:37:00,
2013-03-20 17:40:00,74.8,43.0,30.06,East,84,0.0,0.0,32,0.00,,SKC,0.00,VWS V14.01,2013-03-20 22:40:00,
2013-03-20 17:42:00,74.4,43.5,30.05,East,86,0.0,0.0,33,0.00,,SKC,0.00,VWS V14.01,2013-03-20 22:42:00,
2013-03-20 17:47:00,74.3,42.6,30.05,ESE,102,0.0,0.0,32,0.00,,SKC,0.00,VWS V14.01,2013-03-20 22:47:00,
2013-03-20 17:50:00,74.3,42.6,30.05,ESE,105,0.0,0.0,32,0.00,,SKC,0.00,VWS V14.01,2013-03-20 22:50:00,
2013-03-20 17:52:00,74.2,42.5,30.05,ENE,77,0.0,0.0,32,0.00,,SKC,0.00,VWS V14.01,2013-03-20 22:52:00,
2013-03-20 17:57:00,74.1,43.2,30.04,ENE,78,0.0,0.0,33,0.00,,SKC,0.00,VWS V14.01,2013-03-20 22:57:00,
2013-03-20 18:00:00,74.2,43.3,30.05,ENE,78,0.0,0.0,33,0.00,,SKC,0.00,VWS V14.01,2013-03-20 23:00:00,
2013-03-20 18:02:00,74.0,43.1,30.04,ENE,71,0.0,0.0,33,0.00,,SKC,0.00,VWS V14.01,2013-03-20 23:02:00,
2013-03-20 18:07:00,73.8,43.7,30.04,ENE,72,0.0,0.0,34,0.00,,SKC,0.00,VWS V14.01,2013-03-20 23:07:00,
2013-03-20 18:10:00,73.8,43.7,30.04,ENE,72,0.0,0.0,34,0.00,,SKC,0.00,VWS V14.01,2013-03-20 23:10:00,
2013-03-20 18:12:00,73.4,43.3,30.04,East,91,0.0,0.0,34,0.00,,SKC,0.00,VWS V14.01,2013-03-20 23:12:00,
2013-03-20 18:17:00,73.0,43.8,30.04,ENE,78,0.0,0.0,35,0.00,,SKC,0.00,VWS V14.01,2013-03-20 23:17:00,
2013-03-20 18:20:00,73.1,43.8,30.04,ENE,78,0.0,0.0,35,0.00,,SKC,0.00,VWS V14.01,2013-03-20 23:20:00,
2013-03-20 18:22:00,72.8,43.6,30.04,ENE,78,0.0,0.0,35,0.00,,SKC,0.00,VWS V14.01,2013-03-20 23:22:00,
2013-03-20 18:27:00,72.5,43.3,30.04,ENE,75,0.0,0.0,35,0.00,,SKC,0.00,VWS V14.01,2013-03-20 23:27:00,
2013-03-20 18:30:00,72.5,43.3,30.04,ENE,77,0.0,0.0,35,0.00,,SKC,0.00,VWS V14.01,2013-03-20 23:30:00,
2013-03-20 18:32:00,72.2,43.1,30.04,ENE,78,0.0,0.0,35,0.00,,SKC,0.00,VWS V14.01,2013-03-20 23:32:00,
2013-03-20 18:37:00,72.0,42.9,30.04,ENE,72,0.0,0.0,35,0.00,,SKC,0.00,VWS V14.01,2013-03-20 23:37:00,
2013-03-20 18:40:00,72.0,42.9,30.04,ENE,72,0.0,0.0,35,0.00,,SKC,0.00,VWS V14.01,2013-03-20 23:40:00,
2013-03-20 18:42:00,71.6,41.8,30.04,ENE,74,0.0,0.0,34,0.00,,SKC,0.00,VWS V14.01,2013-03-20 23:42:00,
2013-03-20 18:47:00,71.2,41.4,30.04,ENE,75,0.0,0.0,34,0.00,,SKC,0.00,VWS V14.01,2013-03-20 23:47:00,
2013-03-20 18:50:00,71.3,42.3,30.04,ENE,75,0.0,0.0,35,0.00,,SKC,0.00,VWS V14.01,2013-03-20 23:50:00,
2013-03-20 18:52:00,71.0,41.2,30.04,ENE,74,0.0,0.0,34,0.00,,SKC,0.00,VWS V14.01,2013-03-20 23:52:00,
2013-03-20 18:57:00,70.6,40.9,30.04,ENE,74,0.0,0.0,34,0.00,,SKC,0.00,VWS V14.01,2013-03-20 23:57:00,
2013-03-20 19:00:00,70.7,41.0,30.04,ENE,74,0.0,0.0,34,0.00,,SKC,0.00,VWS V14.01,2013-03-21 00:00:00,
2013-03-20 19:02:00,70.3,39.9,30.05,ENE,74,0.0,0.0,33,0.00,,SKC,0.00,VWS V14.01,2013-03-21 00:02:00,
2013-03-20 19:07:00,70.0,39.6,30.05,ENE,74,0.0,0.0,33,0.00,,SKC,0.00,VWS V14.01,2013-03-21 00:07:00,
2013-03-20 19:10:00,70.1,39.7,30.05,ENE,74,0.0,0.0,33,0.00,,SKC,0.00,VWS V14.01,2013-03-21 00:10:00,
2013-03-20 19:12:00,69.7,39.3,30.05,ENE,73,0.0,0.0,33,0.00,,SKC,0.00,VWS V14.01,2013-03-21 00:12:00,
2013-03-20 19:17:00,69.5,39.9,30.06,ENE,73,0.0,0.0,34,0.00,,SKC,0.00,VWS V14.01,2013-03-21 00:17:00,
2013-03-20 19:20:00,69.5,39.9,30.06,ENE,73,0.0,0.0,34,0.00,,SKC,0.00,VWS V14.01,2013-03-21 00:20:00,
2013-03-20 19:22:00,69.2,40.4,30.05,ENE,73,0.0,0.0,35,0.00,,SKC,0.00,VWS V14.01,2013-03-21 00:22:00,
2013-03-20 19:27:00,68.8,40.1,30.05,ENE,73,0.0,0.0,35,0.00,,SKC,0.00,VWS V14.01,2013-03-21 00:27:00,
2013-03-20 19:30:00,68.9,40.2,30.05,ENE,73,0.0,0.0,35,0.00,,SKC,0.00,VWS V14.01,2013-03-21 00:30:00,
2013-03-20 19:32:00,68.5,40.5,30.05,ENE,73,0.0,0.0,36,0.00,,SKC,0.00,VWS V14.01,2013-03-21 00:32:00,
2013-03-20 19:37:00,68.1,40.9,30.05,ENE,73,0.0,0.0,37,0.00,,SKC,0.00,VWS V14.01,2013-03-21 00:37:00,
2013-03-20 19:40:00,68.2,41.0,30.05,ENE,73,0.0,0.0,37,0.00,,SKC,0.00,VWS V14.01,2013-03-21 00:40:00,
2013-03-20 19:42:00,67.7,40.5,30.04,ENE,73,0.0,0.0,37,0.00,,SKC,0.00,VWS V14.01,2013-03-21 00:42:00,
2013-03-20 19:47:00,67.2,40.8,30.04,ENE,73,0.0,0.0,38,0.00,,SKC,0.00,VWS V14.01,2013-03-21 00:47:00,
2013-03-20 19:50:00,67.3,40.8,30.04,ENE,73,0.0,0.0,38,0.00,,SKC,0.00,VWS V14.01,2013-03-21 00:50:00,
2013-03-20 19:52:00,66.7,40.3,30.04,ENE,73,0.0,0.0,38,0.00,,SKC,0.00,VWS V14.01,2013-03-21 00:52:00,
2013-03-20 19:57:00,66.3,40.6,30.04,ENE,73,0.0,0.0,39,0.00,,SKC,0.00,VWS V14.01,2013-03-21 00:57:00,
2013-03-20 20:00:00,66.4,40.7,30.04,ENE,73,0.0,0.0,39,0.00,,SKC,0.00,VWS V14.01,2013-03-21 01:00:00,
2013-03-20 20:02:00,65.8,40.8,30.04,ENE,73,0.0,0.0,40,0.00,,SKC,0.00,VWS V14.01,2013-03-21 01:02:00,
2013-03-20 20:07:00,65.3,40.4,30.03,ENE,73,0.0,0.0,40,0.00,,SKC,0.00,VWS V14.01,2013-03-21 01:07:00,
2013-03-20 20:10:00,65.4,40.5,30.04,ENE,73,0.0,0.0,40,0.00,,SKC,0.00,VWS V14.01,2013-03-21 01:10:00,
2013-03-20 20:12:00,64.9,40.7,30.03,ENE,73,0.0,0.0,41,0.00,,SKC,0.00,VWS V14.01,2013-03-21 01:12:00,
2013-03-20 20:17:00,64.4,40.2,30.04,ENE,73,0.0,0.0,41,0.00,,SKC,0.00,VWS V14.01,2013-03-21 01:17:00,
2013-03-20 20:20:00,64.5,40.3,30.04,ENE,73,0.0,0.0,41,0.00,,SKC,0.00,VWS V14.01,2013-03-21 01:20:00,
2013-03-20 20:22:00,64.1,40.6,30.04,ENE,73,0.0,0.0,42,0.00,,SKC,0.00,VWS V14.01,2013-03-21 01:22:00,
2013-03-20 20:27:00,63.7,40.2,30.04,ENE,73,0.0,0.0,42,0.00,,SKC,0.00,VWS V14.01,2013-03-21 01:27:00,
2013-03-20 20:30:00,63.8,40.3,30.04,ENE,73,0.0,0.0,42,0.00,,SKC,0.00,VWS V14.01,2013-03-21 01:30:00,
2013-03-20 20:32:00,63.3,40.5,30.04,ENE,73,0.0,0.0,43,0.00,,SKC,0.00,VWS V14.01,2013-03-21 01:32:00,
2013-03-20 20:37:00,63.0,40.2,30.04,ENE,73,0.0,0.0,43,0.00,,SKC,0.00,VWS V14.01,2013-03-21 01:37:00,
2013-03-20 20:40:00,63.0,40.2,30.04,ENE,73,0.0,0.0,43,0.00,,SKC,0.00,VWS V14.01,2013-03-21 01:40:00,
2013-03-20 20:42:00,62.7,40.5,30.04,ENE,73,0.0,0.0,44,0.00,,SKC,0.00,VWS V14.01,2013-03-21 01:42:00,
2013-03-20 20:47:00,62.4,40.8,30.04,ENE,73,0.0,0.0,45,0.00,,SKC,0.00,VWS V14.01,2013-03-21 01:47:00,
2013-03-20 20:50:00,62.4,40.8,30.04,ENE,73,0.0,0.0,45,0.00,,SKC,0.00,VWS V14.01,2013-03-21 01:50:00,
2013-03-20 20:52:00,62.1,40.5,30.04,ENE,73,0.0,0.0,45,0.00,,SKC,0.00,VWS V14.01,2013-03-21 01:52:00,
2013-03-20 20:57:00,61.8,40.8,30.04,ENE,73,0.0,0.0,46,0.00,,SKC,0.00,VWS V14.01,2013-03-21 01:57:00,
2013-03-20 21:00:00,61.9,40.9,30.04,ENE,73,0.0,0.0,46,0.00,,SKC,0.00,VWS V14.01,2013-03-21 02:00:00,
2013-03-20 21:02:00,61.6,40.6,30.03,ENE,73,0.0,0.0,46,0.00,,SKC,0.00,VWS V14.01,2013-03-21 02:02:00,
2013-03-20 21:07:00,61.4,41.0,30.03,ENE,73,0.0,0.0,47,0.00,,SKC,0.00,VWS V14.01,2013-03-21 02:07:00,
2013-03-20 21:10:00,61.4,41.0,30.03,ENE,73,0.0,0.0,47,0.00,,SKC,0.00,VWS V14.01,2013-03-21 02:10:00,
2013-03-20 21:12:00,61.2,41.4,30.03,ENE,73,0.0,0.0,48,0.00,,SKC,0.00,VWS V14.01,2013-03-21 02:12:00,
2013-03-20 21:17:00,61.0,41.2,30.04,ENE,73,0.0,0.0,48,0.00,,SKC,0.00,VWS V14.01,2013-03-21 02:17:00,
2013-03-20 21:20:00,61.1,41.3,30.04,ENE,73,0.0,0.0,48,0.00,,SKC,0.00,VWS V14.01,2013-03-21 02:20:00,
2013-03-20 21:22:00,60.9,41.6,30.04,ENE,73,0.0,0.0,49,0.00,,SKC,0.00,VWS V14.01,2013-03-21 02:22:00,
2013-03-20 21:27:00,60.7,41.5,30.04,ENE,73,0.0,0.0,49,0.00,,SKC,0.00,VWS V14.01,2013-03-21 02:27:00,
2013-03-20 21:30:00,60.7,41.5,30.04,ENE,73,0.0,0.0,49,0.00,,SKC,0.00,VWS V14.01,2013-03-21 02:30:00,
2013-03-20 21:32:00,60.5,41.3,30.04,ENE,73,0.0,0.0,49,0.00,,SKC,0.00,VWS V14.01,2013-03-21 02:32:00,
2013-03-20 21:37:00,60.5,41.3,30.03,ENE,73,0.0,0.0,49,0.00,,SKC,0.00,VWS V14.01,2013-03-21 02:37:00,
2013-03-20 21:40:00,60.5,41.3,30.03,ENE,73,0.0,0.0,49,0.00,,SKC,0.00,VWS V14.01,2013-03-21 02:40:00,
2013-03-20 21:42:00,60.5,41.3,30.03,ENE,73,0.0,0.0,49,0.00,,SKC,0.00,VWS V14.01,2013-03-21 02:42:00,
2013-03-20 21:47:00,60.5,41.8,30.03,ENE,73,0.0,0.0,50,0.00,,SKC,0.00,VWS V14.01,2013-03-21 02:47:00,
2013-03-20 21:50:00,60.5,41.8,30.03,ENE,73,0.0,0.0,50,0.00,,SKC,0.00,VWS V14.01,2013-03-21 02:50:00,
2013-03-20 21:52:00,60.3,41.1,30.03,ENE,73,0.0,0.0,49,0.00,,SKC,0.00,VWS V14.01,2013-03-21 02:52:00,
2013-03-20 21:57:00,60.1,41.4,30.03,ENE,73,0.0,0.0,50,0.00,,SKC,0.00,VWS V14.01,2013-03-21 02:57:00,
2013-03-20 22:00:00,60.2,41.5,30.03,ENE,73,0.0,0.0,50,0.00,,SKC,0.00,VWS V14.01,2013-03-21 03:00:00,
2013-03-20 22:02:00,59.8,41.1,30.04,ENE,73,0.0,0.0,50,0.00,,SKC,0.00,VWS V14.01,2013-03-21 03:02:00,
2013-03-20 22:07:00,59.5,41.4,30.04,ENE,73,0.0,0.0,51,0.00,,SKC,0.00,VWS V14.01,2013-03-21 03:07:00,
2013-03-20 22:10:00,59.6,41.5,30.04,ENE,73,0.0,0.0,51,0.00,,SKC,0.00,VWS V14.01,2013-03-21 03:10:00,
2013-03-20 22:12:00,59.2,41.1,30.03,ENE,73,0.0,0.0,51,0.00,,SKC,0.00,VWS V14.01,2013-03-21 03:12:00,
2013-03-20 22:17:00,58.9,41.3,30.03,ENE,73,0.0,0.0,52,0.00,,SKC,0.00,VWS V14.01,2013-03-21 03:17:00,
2013-03-20 22:20:00,58.9,41.3,30.03,ENE,73,0.0,0.0,52,0.00,,SKC,0.00,VWS V14.01,2013-03-21 03:20:00,
2013-03-20 22:22:00,58.5,41.0,30.03,ENE,73,0.0,0.0,52,0.00,,SKC,0.00,VWS V14.01,2013-03-21 03:22:00,
2013-03-20 22:27:00,58.2,41.2,30.03,ENE,73,0.0,0.0,53,0.00,,SKC,0.00,VWS V14.01,2013-03-21 03:27:00,
2013-03-20 22:30:00,58.3,41.3,30.04,ENE,73,0.0,0.0,53,0.00,,SKC,0.00,VWS V14.01,2013-03-21 03:30:00,
2013-03-20 22:32:00,57.9,41.4,30.03,ENE,73,0.0,0.0,54,0.00,,SKC,0.00,VWS V14.01,2013-03-21 03:32:00,
2013-03-20 22:37:00,57.6,41.1,30.02,ENE,73,0.0,0.0,54,0.00,,SKC,0.00,VWS V14.01,2013-03-21 03:37:00,
2013-03-20 22:40:00,57.7,41.2,30.03,ENE,73,0.0,0.0,54,0.00,,SKC,0.00,VWS V14.01,2013-03-21 03:40:00,
2013-03-20 22:42:00,57.5,41.5,30.03,ENE,73,0.0,0.0,55,0.00,,SKC,0.00,VWS V14.01,2013-03-21 03:42:00,
2013-03-20 22:47:00,57.4,41.4,30.03,ENE,73,0.0,0.0,55,0.00,,SKC,0.00,VWS V14.01,2013-03-21 03:47:00,
2013-03-20 22:50:00,57.4,41.4,30.03,ENE,73,0.0,0.0,55,0.00,,SKC,0.00,VWS V14.01,2013-03-21 03:50:00,
2013-03-20 22:52:00,57.3,41.8,30.03,ENE,73,0.0,0.0,56,0.00,,SKC,0.00,VWS V14.01,2013-03-21 03:52:00,
2013-03-20 22:57:00,57.2,41.7,30.03,ENE,73,0.0,0.0,56,0.00,,SKC,0.00,VWS V14.01,2013-03-21 03:57:00,
2013-03-20 23:00:00,57.2,41.7,30.03,ENE,73,0.0,0.0,56,0.00,,SKC,0.00,VWS V14.01,2013-03-21 04:00:00,
2013-03-20 23:05:00,57.1,41.6,30.03,ENE,73,0.0,0.0,56,0.00,,SKC,0.00,VWS V14.01,2013-03-21 04:05:00,
2013-03-20 23:10:00,57.0,41.9,30.03,ENE,73,0.0,0.0,57,0.00,,SKC,0.00,VWS V14.01,2013-03-21 04:10:00,
2013-03-20 23:15:00,56.9,41.8,30.02,ENE,73,0.0,0.0,57,0.00,,SKC,0.00,VWS V14.01,2013-03-21 04:15:00,
2013-03-20 23:20:00,56.8,41.8,30.02,ENE,73,0.0,0.0,57,0.00,,SKC,0.00,VWS V14.01,2013-03-21 04:20:00,
2013-03-20 23:25:00,56.8,42.2,30.02,ENE,73,0.0,0.0,58,0.00,,SKC,0.00,VWS V14.01,2013-03-21 04:25:00,
2013-03-20 23:30:00,56.7,42.1,30.02,ENE,73,0.0,0.0,58,0.00,,SKC,0.00,VWS V14.01,2013-03-21 04:30:00,
2013-03-20 23:35:00,56.6,42.0,30.01,ENE,73,0.0,0.0,58,0.00,,SKC,0.00,VWS V14.01,2013-03-21 04:35:00,
2013-03-20 23:40:00,56.6,42.0,30.02,ENE,73,0.0,0.0,58,0.00,,SKC,0.00,VWS V14.01,2013-03-21 04:40:00,
2013-03-20 23:45:00,56.5,41.9,30.01,ENE,73,0.0,0.0,58,0.00,,SKC,0.00,VWS V14.01,2013-03-21 04:45:00,
2013-03-20 23:50:00,56.4,42.3,30.01,ENE,73,0.0,0.0,59,0.00,,SKC,0.00,VWS V14.01,2013-03-21 04:50:00,
2013-03-20 23:55:00,56.5,42.4,30.01,ENE,73,0.0,0.0,59,0.00,,SKC,0.00,VWS V14.01,2013-03-21 04:55:00,